sensor_id;sensor_type;location;lat;lon;timestamp;temperature;humidity
33382;DHT22;21342;48.786;9.166;2022-09-27T00:00:38;11.20;99.90
33382;DHT22;21342;48.786;9.166;2022-09-27T00:03:07;11.10;99.90
33382;DHT22;21342;48.786;9.166;2022-09-27T00:05:35;11.00;99.90
33382;DHT22;21342;48.786;9.166;2022-09-27T00:08:02;11.10;99.90
33382;DHT22;21342;48.786;9.166;2022-09-27T00:10:30;11.10;99.90
33382;DHT22;21342;48.786;9.166;2022-09-27T00:12:57;11.10;99.90
33382;DHT22;21342;48.786;9.166;2022-09-27T00:15:24;11.10;99.90
33382;DHT22;21342;48.786;9.166;2022-09-27T00:17:53;11.10;99.90
33382;DHT22;21342;48.786;9.166;2022-09-27T00:20:20;11.10;99.90
33382;DHT22;21342;48.786;9.166;2022-09-27T00:22:48;11.10;99.90
33382;DHT22;21342;48.786;9.166;2022-09-27T00:25:16;11.10;99.90
33382;DHT22;21342;48.786;9.166;2022-09-27T00:27:43;11.20;99.90
33382;DHT22;21342;48.786;9.166;2022-09-27T00:30:12;11.10;99.90
33382;DHT22;21342;48.786;9.166;2022-09-27T00:32:39;11.10;99.90
33382;DHT22;21342;48.786;9.166;2022-09-27T00:35:08;11.10;99.90
33382;DHT22;21342;48.786;9.166;2022-09-27T00:37:35;11.10;99.90
33382;DHT22;21342;48.786;9.166;2022-09-27T00:40:03;11.20;99.90
33382;DHT22;21342;48.786;9.166;2022-09-27T00:42:30;11.10;99.90
33382;DHT22;21342;48.786;9.166;2022-09-27T00:45:08;11.20;99.90
33382;DHT22;21342;48.786;9.166;2022-09-27T00:47:45;11.10;99.90
33382;DHT22;21342;48.786;9.166;2022-09-27T00:50:25;11.10;99.90
33382;DHT22;21342;48.786;9.166;2022-09-27T00:53:02;11.20;99.90
33382;DHT22;21342;48.786;9.166;2022-09-27T00:55:34;11.20;99.90
33382;DHT22;21342;48.786;9.166;2022-09-27T00:58:04;11.20;99.90
33382;DHT22;21342;48.786;9.166;2022-09-27T01:00:33;11.20;99.90
33382;DHT22;21342;48.786;9.166;2022-09-27T01:03:03;11.20;99.90
33382;DHT22;21342;48.786;9.166;2022-09-27T01:05:33;11.20;99.90
33382;DHT22;21342;48.786;9.166;2022-09-27T01:08:00;11.20;99.90
33382;DHT22;21342;48.786;9.166;2022-09-27T01:10:35;11.20;99.90
33382;DHT22;21342;48.786;9.166;2022-09-27T01:13:09;11.20;99.90
33382;DHT22;21342;48.786;9.166;2022-09-27T01:15:43;11.30;99.90
33382;DHT22;21342;48.786;9.166;2022-09-27T01:18:21;11.20;99.90
33382;DHT22;21342;48.786;9.166;2022-09-27T01:21:28;11.20;99.90
33382;DHT22;21342;48.786;9.166;2022-09-27T01:24:18;11.20;99.90
33382;DHT22;21342;48.786;9.166;2022-09-27T01:33:06;11.20;99.90
33382;DHT22;21342;48.786;9.166;2022-09-27T01:35:43;11.40;99.90
33382;DHT22;21342;48.786;9.166;2022-09-27T01:38:20;11.30;99.90
33382;DHT22;21342;48.786;9.166;2022-09-27T01:40:53;11.30;99.90
33382;DHT22;21342;48.786;9.166;2022-09-27T01:43:29;11.40;99.90
33382;DHT22;21342;48.786;9.166;2022-09-27T01:46:03;11.30;99.90
33382;DHT22;21342;48.786;9.166;2022-09-27T01:48:39;11.30;99.90
33382;DHT22;21342;48.786;9.166;2022-09-27T01:51:11;11.30;99.90
33382;DHT22;21342;48.786;9.166;2022-09-27T01:53:43;11.30;99.90
33382;DHT22;21342;48.786;9.166;2022-09-27T01:56:15;11.30;99.90
33382;DHT22;21342;48.786;9.166;2022-09-27T01:58:49;11.30;99.90
33382;DHT22;21342;48.786;9.166;2022-09-27T02:01:19;11.20;99.90
33382;DHT22;21342;48.786;9.166;2022-09-27T02:03:50;11.30;99.90
33382;DHT22;21342;48.786;9.166;2022-09-27T02:06:21;11.40;99.90
33382;DHT22;21342;48.786;9.166;2022-09-27T02:08:51;11.40;99.90
33382;DHT22;21342;48.786;9.166;2022-09-27T02:11:19;11.40;99.90
33382;DHT22;21342;48.786;9.166;2022-09-27T02:13:52;11.30;99.90
33382;DHT22;21342;48.786;9.166;2022-09-27T02:16:28;11.30;99.90
33382;DHT22;21342;48.786;9.166;2022-09-27T02:19:09;11.30;99.90
33382;DHT22;21342;48.786;9.166;2022-09-27T02:21:40;11.30;99.90
33382;DHT22;21342;48.786;9.166;2022-09-27T02:24:12;11.30;99.90
33382;DHT22;21342;48.786;9.166;2022-09-27T02:26:44;11.30;99.90
33382;DHT22;21342;48.786;9.166;2022-09-27T02:29:15;11.20;99.90
33382;DHT22;21342;48.786;9.166;2022-09-27T02:31:43;11.30;99.90
33382;DHT22;21342;48.786;9.166;2022-09-27T02:34:15;11.30;99.90
33382;DHT22;21342;48.786;9.166;2022-09-27T02:36:44;11.30;99.90
33382;DHT22;21342;48.786;9.166;2022-09-27T02:39:11;11.20;99.90
33382;DHT22;21342;48.786;9.166;2022-09-27T02:41:38;11.10;99.90
33382;DHT22;21342;48.786;9.166;2022-09-27T02:44:08;11.00;99.90
33382;DHT22;21342;48.786;9.166;2022-09-27T02:46:55;10.90;99.90
33382;DHT22;21342;48.786;9.166;2022-09-27T02:49:38;10.90;99.90
33382;DHT22;21342;48.786;9.166;2022-09-27T02:52:16;10.90;99.90
33382;DHT22;21342;48.786;9.166;2022-09-27T02:54:56;10.80;99.90
33382;DHT22;21342;48.786;9.166;2022-09-27T02:57:34;10.80;99.90
33382;DHT22;21342;48.786;9.166;2022-09-27T03:00:06;10.80;99.90
33382;DHT22;21342;48.786;9.166;2022-09-27T03:02:42;10.80;99.90
33382;DHT22;21342;48.786;9.166;2022-09-27T03:05:19;10.70;99.90
33382;DHT22;21342;48.786;9.166;2022-09-27T03:07:47;10.60;99.90
33382;DHT22;21342;48.786;9.166;2022-09-27T03:10:20;10.50;99.90
33382;DHT22;21342;48.786;9.166;2022-09-27T03:12:48;10.40;99.90
33382;DHT22;21342;48.786;9.166;2022-09-27T03:15:16;10.40;99.90
33382;DHT22;21342;48.786;9.166;2022-09-27T03:17:43;10.30;99.90
33382;DHT22;21342;48.786;9.166;2022-09-27T03:20:10;10.40;99.90
33382;DHT22;21342;48.786;9.166;2022-09-27T03:22:39;10.40;99.90
33382;DHT22;21342;48.786;9.166;2022-09-27T03:25:07;10.40;99.90
33382;DHT22;21342;48.786;9.166;2022-09-27T03:27:35;10.30;99.90
33382;DHT22;21342;48.786;9.166;2022-09-27T03:30:02;10.40;99.90
33382;DHT22;21342;48.786;9.166;2022-09-27T03:32:31;10.40;99.90
33382;DHT22;21342;48.786;9.166;2022-09-27T03:34:58;10.40;99.90
33382;DHT22;21342;48.786;9.166;2022-09-27T03:37:25;10.40;99.90
33382;DHT22;21342;48.786;9.166;2022-09-27T03:39:55;10.30;99.90
33382;DHT22;21342;48.786;9.166;2022-09-27T03:42:22;10.30;99.90
33382;DHT22;21342;48.786;9.166;2022-09-27T03:44:50;10.30;99.90
33382;DHT22;21342;48.786;9.166;2022-09-27T03:47:17;10.30;99.90
33382;DHT22;21342;48.786;9.166;2022-09-27T03:49:44;10.20;99.90
33382;DHT22;21342;48.786;9.166;2022-09-27T03:52:11;10.30;99.90
33382;DHT22;21342;48.786;9.166;2022-09-27T03:54:39;10.20;99.90
33382;DHT22;21342;48.786;9.166;2022-09-27T03:57:09;10.30;99.90
33382;DHT22;21342;48.786;9.166;2022-09-27T03:59:36;10.30;99.90
33382;DHT22;21342;48.786;9.166;2022-09-27T04:02:03;10.30;99.90
33382;DHT22;21342;48.786;9.166;2022-09-27T04:04:31;10.30;99.90
33382;DHT22;21342;48.786;9.166;2022-09-27T04:06:58;10.30;99.90
33382;DHT22;21342;48.786;9.166;2022-09-27T04:09:25;10.40;99.90
33382;DHT22;21342;48.786;9.166;2022-09-27T04:11:52;10.40;99.90
33382;DHT22;21342;48.786;9.166;2022-09-27T04:14:21;10.30;99.90
33382;DHT22;21342;48.786;9.166;2022-09-27T04:16:48;10.30;99.90
33382;DHT22;21342;48.786;9.166;2022-09-27T04:19:15;10.40;99.90
33382;DHT22;21342;48.786;9.166;2022-09-27T04:21:43;10.40;99.90
33382;DHT22;21342;48.786;9.166;2022-09-27T04:24:10;10.50;99.90
33382;DHT22;21342;48.786;9.166;2022-09-27T04:26:37;10.50;99.90
33382;DHT22;21342;48.786;9.166;2022-09-27T04:29:05;10.50;99.90
33382;DHT22;21342;48.786;9.166;2022-09-27T04:31:36;10.50;99.90
33382;DHT22;21342;48.786;9.166;2022-09-27T04:34:04;10.50;99.90
33382;DHT22;21342;48.786;9.166;2022-09-27T04:36:31;10.60;99.90
33382;DHT22;21342;48.786;9.166;2022-09-27T04:38:59;10.70;99.90
33382;DHT22;21342;48.786;9.166;2022-09-27T04:41:27;10.70;99.90
33382;DHT22;21342;48.786;9.166;2022-09-27T04:43:56;10.70;99.90
33382;DHT22;21342;48.786;9.166;2022-09-27T04:46:26;10.80;99.90
33382;DHT22;21342;48.786;9.166;2022-09-27T04:48:58;10.80;99.90
33382;DHT22;21342;48.786;9.166;2022-09-27T04:51:25;10.70;99.90
33382;DHT22;21342;48.786;9.166;2022-09-27T04:53:54;10.70;99.90
33382;DHT22;21342;48.786;9.166;2022-09-27T04:56:22;10.70;99.90
33382;DHT22;21342;48.786;9.166;2022-09-27T04:58:49;10.70;99.90
33382;DHT22;21342;48.786;9.166;2022-09-27T05:01:16;10.70;99.90
33382;DHT22;21342;48.786;9.166;2022-09-27T05:03:43;10.60;99.90
33382;DHT22;21342;48.786;9.166;2022-09-27T05:06:12;10.70;99.90
33382;DHT22;21342;48.786;9.166;2022-09-27T05:08:39;10.50;99.90
33382;DHT22;21342;48.786;9.166;2022-09-27T05:11:06;10.60;99.90
33382;DHT22;21342;48.786;9.166;2022-09-27T05:13:33;10.50;99.90
33382;DHT22;21342;48.786;9.166;2022-09-27T05:16:02;10.50;99.90
33382;DHT22;21342;48.786;9.166;2022-09-27T05:18:29;10.50;99.90
33382;DHT22;21342;48.786;9.166;2022-09-27T05:20:57;10.50;99.90
33382;DHT22;21342;48.786;9.166;2022-09-27T05:23:25;10.50;99.90
33382;DHT22;21342;48.786;9.166;2022-09-27T05:25:53;10.50;99.90
33382;DHT22;21342;48.786;9.166;2022-09-27T05:28:21;10.40;99.90
33382;DHT22;21342;48.786;9.166;2022-09-27T05:30:48;10.50;99.90
33382;DHT22;21342;48.786;9.166;2022-09-27T05:33:15;10.50;99.90
33382;DHT22;21342;48.786;9.166;2022-09-27T05:35:50;10.50;99.90
33382;DHT22;21342;48.786;9.166;2022-09-27T05:38:17;10.50;99.90
33382;DHT22;21342;48.786;9.166;2022-09-27T05:40:46;10.50;99.90
33382;DHT22;21342;48.786;9.166;2022-09-27T05:43:15;10.50;99.90
33382;DHT22;21342;48.786;9.166;2022-09-27T05:45:43;10.60;99.90
33382;DHT22;21342;48.786;9.166;2022-09-27T05:48:10;10.60;99.90
33382;DHT22;21342;48.786;9.166;2022-09-27T05:50:39;10.60;99.90
33382;DHT22;21342;48.786;9.166;2022-09-27T05:53:07;10.60;99.90
33382;DHT22;21342;48.786;9.166;2022-09-27T05:55:35;10.50;99.90
33382;DHT22;21342;48.786;9.166;2022-09-27T05:58:05;10.50;99.90
33382;DHT22;21342;48.786;9.166;2022-09-27T06:00:33;10.40;99.90
33382;DHT22;21342;48.786;9.166;2022-09-27T06:03:02;10.50;99.90
33382;DHT22;21342;48.786;9.166;2022-09-27T06:05:33;10.50;99.90
33382;DHT22;21342;48.786;9.166;2022-09-27T06:08:02;10.60;99.90
33382;DHT22;21342;48.786;9.166;2022-09-27T06:10:31;10.50;99.90
33382;DHT22;21342;48.786;9.166;2022-09-27T06:12:59;10.50;99.90
33382;DHT22;21342;48.786;9.166;2022-09-27T06:15:28;10.50;99.90
33382;DHT22;21342;48.786;9.166;2022-09-27T06:17:56;10.60;99.90
33382;DHT22;21342;48.786;9.166;2022-09-27T06:20:23;10.70;99.90
33382;DHT22;21342;48.786;9.166;2022-09-27T06:22:51;10.60;99.90
33382;DHT22;21342;48.786;9.166;2022-09-27T06:25:18;10.70;99.90
33382;DHT22;21342;48.786;9.166;2022-09-27T06:27:46;10.70;99.90
33382;DHT22;21342;48.786;9.166;2022-09-27T06:30:13;10.80;99.90
33382;DHT22;21342;48.786;9.166;2022-09-27T06:32:42;10.80;99.90
33382;DHT22;21342;48.786;9.166;2022-09-27T06:35:09;10.80;99.90
33382;DHT22;21342;48.786;9.166;2022-09-27T06:37:36;10.80;99.90
33382;DHT22;21342;48.786;9.166;2022-09-27T06:40:04;10.90;99.90
33382;DHT22;21342;48.786;9.166;2022-09-27T06:42:33;10.90;99.90
33382;DHT22;21342;48.786;9.166;2022-09-27T06:45:01;10.90;99.90
33382;DHT22;21342;48.786;9.166;2022-09-27T06:47:28;10.90;99.90
33382;DHT22;21342;48.786;9.166;2022-09-27T06:49:57;11.00;99.90
33382;DHT22;21342;48.786;9.166;2022-09-27T06:52:24;10.90;99.90
33382;DHT22;21342;48.786;9.166;2022-09-27T06:54:51;10.70;99.90
33382;DHT22;21342;48.786;9.166;2022-09-27T06:57:19;10.80;99.90
33382;DHT22;21342;48.786;9.166;2022-09-27T07:00:00;10.80;99.90
33382;DHT22;21342;48.786;9.166;2022-09-27T07:02:45;10.90;99.90
33382;DHT22;21342;48.786;9.166;2022-09-27T07:05:14;10.90;99.90
33382;DHT22;21342;48.786;9.166;2022-09-27T07:07:41;11.00;99.90
33382;DHT22;21342;48.786;9.166;2022-09-27T07:10:09;10.80;99.90
33382;DHT22;21342;48.786;9.166;2022-09-27T07:12:37;10.80;99.90
33382;DHT22;21342;48.786;9.166;2022-09-27T07:15:05;10.80;99.90
33382;DHT22;21342;48.786;9.166;2022-09-27T07:17:32;10.90;99.90
33382;DHT22;21342;48.786;9.166;2022-09-27T07:20:01;10.80;99.90
33382;DHT22;21342;48.786;9.166;2022-09-27T07:22:30;10.80;99.90
33382;DHT22;21342;48.786;9.166;2022-09-27T07:24:57;10.90;99.90
33382;DHT22;21342;48.786;9.166;2022-09-27T07:27:24;10.90;99.90
33382;DHT22;21342;48.786;9.166;2022-09-27T07:29:52;11.00;99.90
33382;DHT22;21342;48.786;9.166;2022-09-27T07:32:19;11.10;99.90
33382;DHT22;21342;48.786;9.166;2022-09-27T07:34:47;11.20;99.90
33382;DHT22;21342;48.786;9.166;2022-09-27T07:37:14;11.40;99.90
33382;DHT22;21342;48.786;9.166;2022-09-27T07:39:43;11.30;99.90
33382;DHT22;21342;48.786;9.166;2022-09-27T07:42:11;11.20;99.90
33382;DHT22;21342;48.786;9.166;2022-09-27T07:44:38;11.10;99.90
33382;DHT22;21342;48.786;9.166;2022-09-27T07:47:06;11.10;99.90
33382;DHT22;21342;48.786;9.166;2022-09-27T07:49:33;11.00;99.90
33382;DHT22;21342;48.786;9.166;2022-09-27T07:52:01;11.00;99.90
33382;DHT22;21342;48.786;9.166;2022-09-27T07:54:28;11.10;99.90
33382;DHT22;21342;48.786;9.166;2022-09-27T07:56:57;11.10;99.90
33382;DHT22;21342;48.786;9.166;2022-09-27T07:59:25;11.00;99.90
33382;DHT22;21342;48.786;9.166;2022-09-27T08:01:52;11.10;99.90
33382;DHT22;21342;48.786;9.166;2022-09-27T08:04:20;11.20;99.90
33382;DHT22;21342;48.786;9.166;2022-09-27T08:06:47;11.30;99.90
33382;DHT22;21342;48.786;9.166;2022-09-27T08:09:15;11.50;99.90
33382;DHT22;21342;48.786;9.166;2022-09-27T08:11:42;11.50;99.90
33382;DHT22;21342;48.786;9.166;2022-09-27T08:14:12;11.40;99.90
33382;DHT22;21342;48.786;9.166;2022-09-27T08:16:39;11.40;99.90
33382;DHT22;21342;48.786;9.166;2022-09-27T08:19:07;11.40;99.90
33382;DHT22;21342;48.786;9.166;2022-09-27T08:21:34;11.40;99.90
33382;DHT22;21342;48.786;9.166;2022-09-27T08:24:01;11.30;99.90
33382;DHT22;21342;48.786;9.166;2022-09-27T08:26:28;11.30;99.90
33382;DHT22;21342;48.786;9.166;2022-09-27T08:28:56;11.20;99.90
33382;DHT22;21342;48.786;9.166;2022-09-27T08:31:25;11.20;99.90
33382;DHT22;21342;48.786;9.166;2022-09-27T08:33:52;11.30;99.90
33382;DHT22;21342;48.786;9.166;2022-09-27T08:36:19;11.30;99.90
33382;DHT22;21342;48.786;9.166;2022-09-27T08:38:47;11.50;99.90
33382;DHT22;21342;48.786;9.166;2022-09-27T08:41:22;11.70;99.90
33382;DHT22;21342;48.786;9.166;2022-09-27T08:44:02;11.80;99.90
33382;DHT22;21342;48.786;9.166;2022-09-27T08:46:40;11.60;99.90
33382;DHT22;21342;48.786;9.166;2022-09-27T08:49:15;11.70;99.90
33382;DHT22;21342;48.786;9.166;2022-09-27T08:51:47;11.60;99.90
33382;DHT22;21342;48.786;9.166;2022-09-27T08:54:20;11.70;99.90
33382;DHT22;21342;48.786;9.166;2022-09-27T08:56:49;11.80;99.90
33382;DHT22;21342;48.786;9.166;2022-09-27T08:59:19;11.80;99.90
33382;DHT22;21342;48.786;9.166;2022-09-27T09:01:51;11.90;99.90
33382;DHT22;21342;48.786;9.166;2022-09-27T09:04:24;12.00;99.90
33382;DHT22;21342;48.786;9.166;2022-09-27T09:07:02;11.80;99.90
33382;DHT22;21342;48.786;9.166;2022-09-27T09:09:39;11.70;99.90
33382;DHT22;21342;48.786;9.166;2022-09-27T09:12:23;11.50;99.90
33382;DHT22;21342;48.786;9.166;2022-09-27T09:15:26;11.40;99.90
33382;DHT22;21342;48.786;9.166;2022-09-27T09:18:15;11.60;99.90
33382;DHT22;21342;48.786;9.166;2022-09-27T09:20:54;11.60;99.90
33382;DHT22;21342;48.786;9.166;2022-09-27T09:26:36;11.80;99.90
33382;DHT22;21342;48.786;9.166;2022-09-27T09:29:26;12.00;99.90
33382;DHT22;21342;48.786;9.166;2022-09-27T09:32:04;12.20;99.90
33382;DHT22;21342;48.786;9.166;2022-09-27T09:34:38;12.30;99.90
33382;DHT22;21342;48.786;9.166;2022-09-27T09:37:13;12.30;99.90
33382;DHT22;21342;48.786;9.166;2022-09-27T09:39:46;12.20;99.90
33382;DHT22;21342;48.786;9.166;2022-09-27T09:42:17;12.40;99.90
33382;DHT22;21342;48.786;9.166;2022-09-27T09:44:51;13.00;99.90
33382;DHT22;21342;48.786;9.166;2022-09-27T09:47:28;13.60;99.90
33382;DHT22;21342;48.786;9.166;2022-09-27T09:50:00;14.90;99.90
33382;DHT22;21342;48.786;9.166;2022-09-27T09:52:37;15.70;99.90
33382;DHT22;21342;48.786;9.166;2022-09-27T09:55:14;16.20;99.90
33382;DHT22;21342;48.786;9.166;2022-09-27T09:57:48;16.30;99.90
33382;DHT22;21342;48.786;9.166;2022-09-27T10:00:18;15.70;99.90
33382;DHT22;21342;48.786;9.166;2022-09-27T10:02:53;15.50;99.90
33382;DHT22;21342;48.786;9.166;2022-09-27T10:05:23;14.60;99.90
33382;DHT22;21342;48.786;9.166;2022-09-27T10:07:53;14.40;99.90
33382;DHT22;21342;48.786;9.166;2022-09-27T10:10:22;14.80;99.90
33382;DHT22;21342;48.786;9.166;2022-09-27T10:12:50;15.10;99.90
33382;DHT22;21342;48.786;9.166;2022-09-27T10:15:19;16.10;99.90
33382;DHT22;21342;48.786;9.166;2022-09-27T10:17:48;17.10;99.90
33382;DHT22;21342;48.786;9.166;2022-09-27T10:20:26;16.80;99.90
33382;DHT22;21342;48.786;9.166;2022-09-27T10:22:58;15.80;99.90
33382;DHT22;21342;48.786;9.166;2022-09-27T10:25:44;15.30;99.90
33382;DHT22;21342;48.786;9.166;2022-09-27T10:28:26;15.10;99.90
33382;DHT22;21342;48.786;9.166;2022-09-27T10:30:59;14.70;99.90
33382;DHT22;21342;48.786;9.166;2022-09-27T10:33:28;14.30;99.90
33382;DHT22;21342;48.786;9.166;2022-09-27T10:35:59;13.80;99.90
33382;DHT22;21342;48.786;9.166;2022-09-27T10:38:29;13.60;99.90
33382;DHT22;21342;48.786;9.166;2022-09-27T10:40:58;13.20;99.90
33382;DHT22;21342;48.786;9.166;2022-09-27T10:43:41;13.30;99.90
33382;DHT22;21342;48.786;9.166;2022-09-27T10:46:24;13.50;99.90
33382;DHT22;21342;48.786;9.166;2022-09-27T10:49:08;13.60;99.90
33382;DHT22;21342;48.786;9.166;2022-09-27T10:51:39;14.50;99.90
33382;DHT22;21342;48.786;9.166;2022-09-27T10:54:18;15.10;99.90
33382;DHT22;21342;48.786;9.166;2022-09-27T10:56:54;14.60;99.90
33382;DHT22;21342;48.786;9.166;2022-09-27T10:59:23;14.60;99.90
33382;DHT22;21342;48.786;9.166;2022-09-27T11:01:50;15.10;99.90
33382;DHT22;21342;48.786;9.166;2022-09-27T11:04:22;15.00;99.90
33382;DHT22;21342;48.786;9.166;2022-09-27T11:06:51;14.60;99.90
33382;DHT22;21342;48.786;9.166;2022-09-27T11:09:21;14.00;99.90
33382;DHT22;21342;48.786;9.166;2022-09-27T11:12:05;14.10;99.90
33382;DHT22;21342;48.786;9.166;2022-09-27T11:14:34;14.20;99.90
33382;DHT22;21342;48.786;9.166;2022-09-27T11:17:16;14.40;99.90
33382;DHT22;21342;48.786;9.166;2022-09-27T11:19:53;14.20;99.90
33382;DHT22;21342;48.786;9.166;2022-09-27T11:22:44;14.20;99.90
33382;DHT22;21342;48.786;9.166;2022-09-27T11:25:19;14.20;99.90
33382;DHT22;21342;48.786;9.166;2022-09-27T11:28:00;14.10;99.90
33382;DHT22;21342;48.786;9.166;2022-09-27T11:30:34;14.30;99.90
33382;DHT22;21342;48.786;9.166;2022-09-27T11:33:19;14.20;99.90
33382;DHT22;21342;48.786;9.166;2022-09-27T11:35:57;13.80;99.90
33382;DHT22;21342;48.786;9.166;2022-09-27T11:38:30;13.80;99.90
33382;DHT22;21342;48.786;9.166;2022-09-27T11:41:15;13.60;99.90
33382;DHT22;21342;48.786;9.166;2022-09-27T11:44:15;13.60;99.90
33382;DHT22;21342;48.786;9.166;2022-09-27T11:46:52;13.70;99.90
33382;DHT22;21342;48.786;9.166;2022-09-27T11:49:44;13.90;99.90
33382;DHT22;21342;48.786;9.166;2022-09-27T11:52:26;14.00;99.90
33382;DHT22;21342;48.786;9.166;2022-09-27T11:55:11;13.60;99.90
33382;DHT22;21342;48.786;9.166;2022-09-27T11:57:43;13.50;99.90
33382;DHT22;21342;48.786;9.166;2022-09-27T12:00:18;13.50;99.90
33382;DHT22;21342;48.786;9.166;2022-09-27T12:06:04;13.60;99.90
33382;DHT22;21342;48.786;9.166;2022-09-27T12:08:41;13.40;99.90
33382;DHT22;21342;48.786;9.166;2022-09-27T12:11:18;12.80;99.90
33382;DHT22;21342;48.786;9.166;2022-09-27T12:13:49;12.30;99.90
33382;DHT22;21342;48.786;9.166;2022-09-27T12:16:19;12.00;99.90
33382;DHT22;21342;48.786;9.166;2022-09-27T12:18:48;11.90;99.90
33382;DHT22;21342;48.786;9.166;2022-09-27T12:21:17;11.50;99.90
33382;DHT22;21342;48.786;9.166;2022-09-27T12:23:46;11.20;99.90
33382;DHT22;21342;48.786;9.166;2022-09-27T12:26:21;11.00;99.90
33382;DHT22;21342;48.786;9.166;2022-09-27T12:28:52;10.60;99.90
33382;DHT22;21342;48.786;9.166;2022-09-27T12:31:25;10.70;99.90
33382;DHT22;21342;48.786;9.166;2022-09-27T12:34:05;10.80;99.90
33382;DHT22;21342;48.786;9.166;2022-09-27T12:36:36;11.00;99.90
33382;DHT22;21342;48.786;9.166;2022-09-27T12:39:12;11.10;99.90
33382;DHT22;21342;48.786;9.166;2022-09-27T12:41:48;11.10;99.90
33382;DHT22;21342;48.786;9.166;2022-09-27T12:44:17;11.30;99.90
33382;DHT22;21342;48.786;9.166;2022-09-27T12:46:55;11.40;99.90
33382;DHT22;21342;48.786;9.166;2022-09-27T12:49:30;11.50;99.90
33382;DHT22;21342;48.786;9.166;2022-09-27T12:52:00;11.80;99.90
33382;DHT22;21342;48.786;9.166;2022-09-27T12:54:54;11.90;99.90
33382;DHT22;21342;48.786;9.166;2022-09-27T12:57:36;12.00;99.90
33382;DHT22;21342;48.786;9.166;2022-09-27T13:00:09;11.90;99.90
33382;DHT22;21342;48.786;9.166;2022-09-27T13:03:04;11.70;99.90
33382;DHT22;21342;48.786;9.166;2022-09-27T13:05:58;12.10;99.90
33382;DHT22;21342;48.786;9.166;2022-09-27T13:08:44;12.60;99.90
33382;DHT22;21342;48.786;9.166;2022-09-27T13:11:20;12.90;99.90
33382;DHT22;21342;48.786;9.166;2022-09-27T13:13:56;12.60;99.90
33382;DHT22;21342;48.786;9.166;2022-09-27T13:16:24;12.40;99.90
33382;DHT22;21342;48.786;9.166;2022-09-27T13:18:56;12.40;99.90
33382;DHT22;21342;48.786;9.166;2022-09-27T13:21:55;12.50;99.90
33382;DHT22;21342;48.786;9.166;2022-09-27T13:24:38;12.20;99.90
33382;DHT22;21342;48.786;9.166;2022-09-27T13:27:34;12.00;99.90
33382;DHT22;21342;48.786;9.166;2022-09-27T13:33:33;11.40;99.90
33382;DHT22;21342;48.786;9.166;2022-09-27T13:36:25;11.20;99.90
33382;DHT22;21342;48.786;9.166;2022-09-27T13:39:15;11.10;99.90
33382;DHT22;21342;48.786;9.166;2022-09-27T13:42:09;11.10;99.90
33382;DHT22;21342;48.786;9.166;2022-09-27T13:44:48;10.90;99.90
33382;DHT22;21342;48.786;9.166;2022-09-27T13:47:25;11.10;99.90
33382;DHT22;21342;48.786;9.166;2022-09-27T13:50:00;11.00;99.90
33382;DHT22;21342;48.786;9.166;2022-09-27T13:52:31;11.10;99.90
33382;DHT22;21342;48.786;9.166;2022-09-27T13:55:00;11.00;99.90
33382;DHT22;21342;48.786;9.166;2022-09-27T13:57:43;11.10;99.90
33382;DHT22;21342;48.786;9.166;2022-09-27T14:00:13;11.10;99.90
33382;DHT22;21342;48.786;9.166;2022-09-27T14:02:52;11.10;99.90
33382;DHT22;21342;48.786;9.166;2022-09-27T14:05:25;11.10;99.90
33382;DHT22;21342;48.786;9.166;2022-09-27T14:07:54;11.10;99.90
33382;DHT22;21342;48.786;9.166;2022-09-27T14:10:25;11.10;99.90
33382;DHT22;21342;48.786;9.166;2022-09-27T14:12:53;10.90;99.90
33382;DHT22;21342;48.786;9.166;2022-09-27T14:15:23;10.60;99.90
33382;DHT22;21342;48.786;9.166;2022-09-27T14:17:51;10.70;99.90
33382;DHT22;21342;48.786;9.166;2022-09-27T14:20:36;10.40;99.90
33382;DHT22;21342;48.786;9.166;2022-09-27T14:23:14;10.50;99.90
33382;DHT22;21342;48.786;9.166;2022-09-27T14:25:44;10.50;99.90
33382;DHT22;21342;48.786;9.166;2022-09-27T14:28:23;10.60;99.90
33382;DHT22;21342;48.786;9.166;2022-09-27T14:31:05;10.40;99.90
33382;DHT22;21342;48.786;9.166;2022-09-27T14:33:33;10.30;99.90
33382;DHT22;21342;48.786;9.166;2022-09-27T14:36:02;10.20;99.90
33382;DHT22;21342;48.786;9.166;2022-09-27T14:38:49;10.40;99.90
33382;DHT22;21342;48.786;9.166;2022-09-27T14:41:16;10.50;99.90
33382;DHT22;21342;48.786;9.166;2022-09-27T14:43:45;10.70;99.90
33382;DHT22;21342;48.786;9.166;2022-09-27T14:46:25;10.80;99.90
33382;DHT22;21342;48.786;9.166;2022-09-27T14:48:53;10.70;99.90
33382;DHT22;21342;48.786;9.166;2022-09-27T14:51:27;10.60;99.90
33382;DHT22;21342;48.786;9.166;2022-09-27T14:53:56;10.80;99.90
33382;DHT22;21342;48.786;9.166;2022-09-27T14:56:27;10.90;99.90
33382;DHT22;21342;48.786;9.166;2022-09-27T14:59:01;10.90;99.90
33382;DHT22;21342;48.786;9.166;2022-09-27T15:01:30;11.00;99.90
33382;DHT22;21342;48.786;9.166;2022-09-27T15:04:04;11.10;99.90
33382;DHT22;21342;48.786;9.166;2022-09-27T15:06:34;11.20;99.90
33382;DHT22;21342;48.786;9.166;2022-09-27T15:09:03;11.30;99.90
33382;DHT22;21342;48.786;9.166;2022-09-27T15:11:31;11.40;99.90
33382;DHT22;21342;48.786;9.166;2022-09-27T15:14:00;11.30;99.90
33382;DHT22;21342;48.786;9.166;2022-09-27T15:16:30;11.20;99.90
33382;DHT22;21342;48.786;9.166;2022-09-27T15:19:01;11.10;99.90
33382;DHT22;21342;48.786;9.166;2022-09-27T15:21:35;11.10;99.90
33382;DHT22;21342;48.786;9.166;2022-09-27T15:24:04;11.10;99.90
33382;DHT22;21342;48.786;9.166;2022-09-27T15:26:37;11.20;99.90
33382;DHT22;21342;48.786;9.166;2022-09-27T15:29:17;11.30;99.90
33382;DHT22;21342;48.786;9.166;2022-09-27T15:31:45;11.30;99.90
33382;DHT22;21342;48.786;9.166;2022-09-27T15:34:16;11.20;99.90
33382;DHT22;21342;48.786;9.166;2022-09-27T15:36:56;11.20;99.90
33382;DHT22;21342;48.786;9.166;2022-09-27T15:39:29;11.10;99.90
33382;DHT22;21342;48.786;9.166;2022-09-27T15:42:04;11.10;99.90
33382;DHT22;21342;48.786;9.166;2022-09-27T15:44:43;11.10;99.90
33382;DHT22;21342;48.786;9.166;2022-09-27T15:47:46;11.30;99.90
33382;DHT22;21342;48.786;9.166;2022-09-27T15:50:34;11.40;99.90
33382;DHT22;21342;48.786;9.166;2022-09-27T15:53:03;11.50;99.90
33382;DHT22;21342;48.786;9.166;2022-09-27T15:55:33;11.50;99.90
33382;DHT22;21342;48.786;9.166;2022-09-27T15:58:03;11.40;99.90
33382;DHT22;21342;48.786;9.166;2022-09-27T16:00:33;11.40;99.90
33382;DHT22;21342;48.786;9.166;2022-09-27T16:03:01;11.40;99.90
33382;DHT22;21342;48.786;9.166;2022-09-27T16:05:28;11.40;99.90
33382;DHT22;21342;48.786;9.166;2022-09-27T16:07:57;11.40;99.90
33382;DHT22;21342;48.786;9.166;2022-09-27T16:10:31;11.40;99.90
33382;DHT22;21342;48.786;9.166;2022-09-27T16:12:58;11.40;99.90
33382;DHT22;21342;48.786;9.166;2022-09-27T16:15:25;11.40;99.90
33382;DHT22;21342;48.786;9.166;2022-09-27T16:17:52;11.30;99.90